Tiempo atmosférico en la estación meteorológica de Oliva, València/Valencia (5 m.)



Fecha
DESCASC
Temp. máxima en grados centígrados (hora)
DESCASC
Temp. mínima en grados centígrados (hora)
DESCASC
Temp. media en grados centígrados
DESCASC
Racha de viento máxima en m/sg (hora)
DESCASC
Velocidad máxima media en intervalos de 10 minutos(hora)
DESCASC
Precipitaciones diarias en mm
DESCASC
Precipitaciones de 00:00 a 06:00 en mm
DESCASC
Precipitaciones de 06:00 a 12:00 en mm
DESCASC
Precipitaciones de 12:00 a 18:00 en mm
DESCASC
Precipitaciones de 18:00 a 24:00 en mm
DESCASC
13-10-2019 25.6 (14:00) 18.3 (05:50) 21.9 4.72 (18:30) 2.5 (14:40) 0 0 0 0 0
12-10-2019 25.6 (14:30) 18 (01:40) 21.8 3.61 (15:10) 2.5 (15:10) 0 0 0 0 0
10-10-2019 25.8 (13:40) 19.2 (00:00) 22.5 5.28 (16:50) 3.06 (14:10) 0 0 0 0 0
09-10-2019 26.2 (17:30) 16.8 (00:00) 21.5 4.72 (13:20) 2.78 (13:20) 0 0 0 0 0
08-10-2019 28.2 (17:20) 15.6 (00:00) 21.9 5.83 (17:50) 3.06 (17:40) 0 0 0 0 0
07-10-2019 26.8 (12:40) 18 (00:00) 22.4 8.06 (14:20) 3.89 (14:20) 0 0 0 0 0
06-10-2019 25.5 (15:20) 18.1 (00:00) 21.8 5.56 (18:30) 3.06 (17:10) 0 0 0 0 0
05-10-2019 26.3 (13:40) 15.7 (07:10) 21 5.28 (18:00) 3.33 (18:20) 0 0 0 0 0
04-10-2019 27.9 (16:50) 13.7 (00:00) 20.8 7.22 (15:30) 3.89 (16:00) 0 0 0 0 0
03-10-2019 25.2 (12:30) 14.7 (00:00) 20 6.94 (12:20) 3.61 (17:50) 0 0 0 0 0
02-10-2019 27.2 (15:30) 17.6 (00:00) 22.4 13.61 (09:50) 5 (15:00) 0 0 0 0 0
01-10-2019 30.2 (17:50) 18.4 (00:00) 24.3 4.72 (22:40) 2.5 (14:30) 0 0 0 0 0
30-09-2019 27 (16:20) 17.2 (00:00) 22.1 4.44 (12:30) 2.5 (13:10) 0 0 0 0 0
29-09-2019 29.7 (19:00) 18.8 (00:00) 24.3 5.56 (13:50) 2.78 (17:10) 0 0 0 0 0
28-09-2019 26.8 (13:40) 18.6 (00:00) 22.7 5.28 (13:20) 3.33 (13:20) 0 0 0 0 0
27-09-2019 29.7 (16:40) 18.1 (00:00) 23.9 7.22 (18:50) 3.61 (17:50) 0 0 0 0 0
26-09-2019 28.1 (17:30) 19.8 (00:00) 23.9 7.22 (16:40) 3.89 (16:40) 0 0 0 0 0
25-09-2019 29.5 (12:00) 21.6 (00:00) 25.6 11.11 (07:20) 5 (14:50) 0 0 0 0 0
24-09-2019 32.3 (13:30) 17.3 (00:00) 24.8 7.5 (11:50) 3.33 (14:40) 0 0 0 0 0
23-09-2019 26.5 (12:30) 19.7 (00:00) 23.1 7.78 (05:30) 3.89 (05:30) 0 0 0 0 0
22-09-2019 30.1 (15:20) 21.5 (00:00) 25.8 7.22 (15:30) 3.89 (16:10) 0 0 0 0 0
21-09-2019 26.4 (15:10) 21.7 (00:00) 24.1 6.11 (00:10) 3.61 (00:10) 2.3 0 2.3 0 0
20-09-2019 27.1 (14:20) 20.3 (00:00) 23.7 6.94 (18:30) 3.89 (18:30) 0 0 0 0 0
19-09-2019 27.2 (17:40) 18.6 (00:00) 22.9 4.72 (13:00) 2.22 (11:30) 0 0 0 0 0
18-09-2019 -- (--) -- (--) -- -- (--) -- (--) -- 0 0 -- 0
17-09-2019 26.1 (13:30) 19.1 (00:00) 22.6 5.28 (18:30) 3.33 (18:40) 0 0 0 0 0
16-09-2019 26.5 (15:40) 21.2 (00:00) 23.9 7.22 (03:40) 3.61 (02:50) 0 0 0 0 0

Gráficas

Temp. máximas Temp. mínimas Temp. medias Precipitaciones Rachas de viento máximas Velocidades máximas media en intervalos de 10 minutos

Datos horarios

Fecha y hora oficial Temperatura (ºC) Velocidad del viento (km/h) Dirección del viento Racha (km/h) Dirección de racha Precipitación (mm) Presión (hPa) Tendencia (hPa) Humedad (%)
2019-10-15 23:00:00 15.3 0 Calma 7 Oeste 0 -- -- --
2019-10-15 22:00:00 14.6 2 Oeste 8 Oeste 0 -- -- --
2019-10-15 21:00:00 16.5 3 Sur 7 Sur 0 -- -- --
2019-10-15 20:00:00 19.4 3 Sur 7 Sur 0 -- -- --
2019-10-15 19:00:00 22.8 0 Calma 10 Sudoeste 0 -- -- --
2019-10-15 18:00:00 23.4 5 Sudoeste 17 Oeste 0 -- -- --
2019-10-15 17:00:00 23.6 8 Oeste 22 Oeste 0 -- -- --
2019-10-15 16:00:00 23.5 10 Oeste 24 Oeste 0 -- -- --
2019-10-15 15:00:00 22.9 13 Oeste 27 Noroeste 0 -- -- --
2019-10-15 14:00:00 22.3 15 Noroeste 29 Noroeste 0 -- -- --
2019-10-15 13:00:00 21.6 13 Oeste 36 Oeste 0 -- -- --
2019-10-15 12:00:00 19.2 17 Oeste 41 Oeste 0 -- -- --
2019-10-15 11:00:00 17.7 22 Noroeste 45 Oeste 0 -- -- --
2019-10-15 10:00:00 16.8 18 Oeste 45 Oeste 0 -- -- --
2019-10-15 09:00:00 15.8 14 Oeste 35 Oeste 0 -- -- --
2019-10-15 08:00:00 15.6 16 Noroeste 41 Noroeste 0 -- -- --
2019-10-15 07:00:00 15.8 15 Noroeste 35 Noroeste 0 -- -- --
2019-10-15 06:00:00 15.8 12 Noroeste 24 Noroeste 0 -- -- --
2019-10-15 05:00:00 16.1 11 Oeste 40 Noroeste 0 -- -- --
2019-10-15 04:00:00 17.4 24 Oeste 63 Noroeste 0 -- -- --
2019-10-15 03:00:00 17.5 13 Oeste 26 Noroeste 0 -- -- --
2019-10-15 02:00:00 18.2 12 Noroeste 35 Noroeste 0 -- -- --
2019-10-15 01:00:00 18.7 11 Noroeste 38 Noroeste 0 -- -- --
2019-10-15 00:00:00 19.8 10 Oeste 23 Noroeste 0 -- -- --
2019-10-14 23:00:00 19 2 Sudoeste 11 Sudoeste 0 -- -- --
2019-10-14 22:00:00 20 0 Calma 12 Sur 0 -- -- --
2019-10-14 21:00:00 21.4 3 Sur 18 Oeste 0.6 -- -- --
2019-10-14 20:00:00 22.3 0 Calma 19 Este 0 -- -- --
2019-10-14 19:00:00 22.8 7 Sudeste 18 Sudeste 0.1 -- -- --
2019-10-14 18:00:00 23.3 6 Este 13 Este 0 -- -- --
2019-10-14 17:00:00 23.6 4 Este 9 Sudeste 0 -- -- --
2019-10-14 16:00:00 23.2 4 Nordeste 9 Este 0 -- -- --
2019-10-14 15:00:00 22.7 3 Este 17 Nordeste 0 -- -- --
2019-10-14 14:00:00 22.4 14 Norte 30 Norte 2.2 -- -- --
2019-10-14 13:00:00 22.8 6 Oeste 26 Oeste 0 -- -- --
2019-10-14 12:00:00 23.9 6 Norte 15 Norte 0 -- -- --
2019-10-14 11:00:00 23.9 0 Calma 5 Este 0 -- -- --
2019-10-14 10:00:00 21.3 2 Noroeste 7 Noroeste 0 -- -- --
2019-10-14 09:00:00 19.8 2 Oeste 4 Oeste 0 -- -- --
2019-10-14 08:00:00 19.8 0 Calma 8 Sur 0 -- -- --
2019-10-14 07:00:00 20.1 0 Calma -- -- 0 -- -- --
2019-10-14 06:00:00 20.2 0 Calma 0 Calma 0 -- -- --
2019-10-14 05:00:00 21.1 0 Calma -- -- 0 -- -- --
2019-10-14 04:00:00 21.9 0 Calma 5 Norte 0 -- -- --
2019-10-14 03:00:00 22.7 2 Norte 7 Nordeste 0 -- -- --
2019-10-14 02:00:00 22.8 3 Nordeste 9 Nordeste 0 -- -- --
2019-10-14 01:00:00 23.1 5 Nordeste 10 Nordeste 0 -- -- --
2019-10-14 00:00:00 23.4 4 Este 10 Nordeste 0 -- -- --
2019-10-13 23:00:00 23.5 4 Este 11 Este 0 -- -- --
2019-10-13 22:00:00 23.6 6 Este 13 Este 0 -- -- --
2019-10-13 21:00:00 23.7 6 Este 14 Este 0 -- -- --
2019-10-13 20:00:00 23.8 6 Este 15 Este 0 -- -- --
2019-10-13 19:00:00 24 8 Este 17 Sudeste 0 -- -- --
2019-10-13 18:00:00 24.4 5 Este 12 Este 0 -- -- --
2019-10-13 17:00:00 24.6 6 Este 12 Nordeste 0 -- -- --
2019-10-13 16:00:00 24.7 7 Nordeste 13 Este 0 -- -- --
2019-10-13 15:00:00 24.7 9 Nordeste 14 Nordeste 0 -- -- --
2019-10-13 14:00:00 25.2 7 Nordeste 12 Nordeste 0 -- -- --
2019-10-13 13:00:00 24.5 8 Norte 14 Norte 0 -- -- --
2019-10-13 12:00:00 24.2 7 Norte 13 Norte 0 -- -- --
2019-10-13 11:00:00 23.9 5 Noroeste 13 Noroeste 0 -- -- --
2019-10-13 10:00:00 20.9 4 Oeste 10 Noroeste 0 -- -- --
2019-10-13 09:00:00 19 4 Oeste 9 Oeste 0 -- -- --
2019-10-13 08:00:00 18.7 6 Noroeste 12 Noroeste 0 -- -- --
2019-10-13 07:00:00 18.8 3 Oeste 9 Oeste 0 -- -- --
2019-10-13 06:00:00 18.4 4 Oeste 8 Noroeste 0 -- -- --
2019-10-13 05:00:00 18.5 0 Calma 8 Oeste 0 -- -- --
2019-10-13 04:00:00 18.7 3 Oeste 7 Oeste 0 -- -- --
2019-10-13 03:00:00 19.1 2 Oeste 5 Noroeste 0 -- -- --
2019-10-13 02:00:00 19.8 0 Calma 5 Oeste 0 -- -- --
2019-10-13 01:00:00 20.4 0 Calma 6 Noroeste 0 -- -- --
2019-10-13 00:00:00 21.2 0 Calma 5 Oeste 0 -- -- --
2019-10-12 23:00:00 22.1 2 Oeste 7 Noroeste 0 -- -- --
2019-10-12 22:00:00 22.8 3 Noroeste 8 Oeste 0 -- -- --
2019-10-12 21:00:00 23.5 0 Calma 10 Nordeste 0 -- -- --
2019-10-12 20:00:00 24 4 Este 10 Este 0 -- -- --
2019-10-12 19:00:00 24.3 6 Este 10 Este 0 -- -- --
2019-10-12 18:00:00 24.5 5 Nordeste 12 Nordeste 0 -- -- --
2019-10-12 17:00:00 24.9 6 Nordeste 11 Este 0 -- -- --
2019-10-12 16:00:00 24.8 6 Nordeste 13 Nordeste 0 -- -- --
2019-10-12 15:00:00 25.2 8 Nordeste 12 Nordeste 0 -- -- --
2019-10-12 14:00:00 25.1 6 Nordeste 11 Nordeste 0 -- -- --
2019-10-12 13:00:00 24.8 5 Nordeste 9 Nordeste 0 -- -- --
2019-10-12 12:00:00 23.8 3 Norte 13 Noroeste 0 -- -- --
2019-10-12 11:00:00 22.5 6 Noroeste 10 Noroeste 0 -- -- --
2019-10-12 10:00:00 21.1 4 Noroeste 7 Oeste 0 -- -- --
2019-10-12 09:00:00 19.3 3 Noroeste 6 Oeste 0 -- -- --
2019-10-12 08:00:00 19 3 Oeste 8 Noroeste 0 -- -- --
2019-10-12 07:00:00 19.2 5 Noroeste 8 Noroeste 0 -- -- --
2019-10-12 06:00:00 18.8 3 Noroeste 6 Noroeste 0 -- -- --
2019-10-12 05:00:00 18.6 0 Calma 8 Noroeste 0 -- -- --
2019-10-12 04:00:00 18.5 3 Oeste 6 Noroeste 0 -- -- --
2019-10-12 03:00:00 18.2 0 Calma 7 Noroeste 0 -- -- --
2019-10-12 02:00:00 18.3 0 Calma 6 Oeste 0 -- -- --
2019-10-12 01:00:00 18.9 3 Sur 5 Sur 0 -- -- --
2019-10-12 00:00:00 19.4 0 Calma 5 Oeste 0 -- -- --
2019-10-11 23:00:00 21 0 Calma 15 Sudeste 0 -- -- --
2019-10-11 22:00:00 22.4 4 Sur 14 Sudeste 0 -- -- --
2019-10-11 21:00:00 22.7 6 Sudeste 19 Sudeste 0 -- -- --
2019-10-11 20:00:00 23.5 10 Sudeste 25 Sudeste 0 -- -- --
2019-10-11 19:00:00 24.1 12 Sudeste 24 Sudeste 0 -- -- --
2019-10-11 18:00:00 25 10 Sudeste 34 Sudeste 0 -- -- --
2019-10-11 17:00:00 24.9 15 Sudeste 29 Sudeste 0 -- -- --
2019-10-11 16:00:00 25.2 13 Sudeste 26 Este 0 -- -- --
2019-10-11 15:00:00 24.8 8 Este 15 Nordeste 0 -- -- --
2019-10-11 14:00:00 24.5 9 Nordeste 14 Nordeste 0 -- -- --
2019-10-11 13:00:00 24.6 8 Nordeste 14 Nordeste 0 -- -- --
2019-10-11 12:00:00 23.9 5 Norte 9 Norte 0 -- -- --
2019-10-11 11:00:00 23 2 Noroeste 9 Noroeste 0 -- -- --
2019-10-11 10:00:00 19.8 3 Noroeste 9 Noroeste 0 -- -- --
2019-10-11 09:00:00 18.4 6 Noroeste 9 Noroeste 0 -- -- --
2019-10-11 08:00:00 17.3 5 Noroeste 7 Noroeste 0 -- -- --
2019-10-11 07:00:00 17.7 3 Oeste 6 Noroeste 0 -- -- --
2019-10-11 06:00:00 17.9 4 Oeste 5 Oeste 0 -- -- --
2019-10-11 05:00:00 17.9 0 Calma 2 Oeste 0 -- -- --
2019-10-11 04:00:00 18.9 2 Oeste 5 Oeste 0 -- -- --
2019-10-11 03:00:00 19.6 2 Oeste 5 Oeste 0 -- -- --
2019-10-11 02:00:00 20.4 0 Calma 0 Calma 0 -- -- --
2019-10-11 01:00:00 21.4 0 Calma 2 Oeste 0 -- -- --
2019-10-11 00:00:00 21.7 0 Calma 3 Oeste 0 -- -- --
2019-10-10 23:00:00 21.9 0 Calma 4 Oeste 0 -- -- --
2019-10-10 22:00:00 21.8 0 Calma 6 Noroeste 0 -- -- --
2019-10-10 21:00:00 21.8 2 Noroeste 5 Noroeste 0 -- -- --
2019-10-10 20:00:00 22 2 Oeste 9 Oeste 0 -- -- --
2019-10-10 19:00:00 22.2 0 Calma 13 Noroeste 0 -- -- --
2019-10-10 18:00:00 22.5 6 Noroeste 17 Norte 0 -- -- --
2019-10-10 17:00:00 23.4 7 Norte 19 Noroeste 0 -- -- --
2019-10-10 16:00:00 24.4 9 Norte 17 Nordeste 0 -- -- --
2019-10-10 15:00:00 25 8 Norte 19 Norte 0 -- -- --
2019-10-10 14:00:00 24.7 10 Norte 18 Norte 0 -- -- --
2019-10-10 13:00:00 25 6 Nordeste 11 Nordeste 0 -- -- --
2019-10-10 12:00:00 24.8 0 Calma -- -- 0 -- -- --
2019-10-10 11:00:00 24.1 0 Calma -- -- 0 -- -- --
2019-10-10 10:00:00 21.1 0 Calma -- -- 0 -- -- --
2019-10-10 09:00:00 20 0 Calma -- -- 0 -- -- --
2019-10-10 08:00:00 19.8 0 Calma -- -- 0 -- -- --
2019-10-10 07:00:00 20.3 0 Calma -- -- 0 -- -- --
2019-10-10 06:00:00 20 0 Calma 3 Oeste 0 -- -- --
2019-10-10 05:00:00 19.8 0 Calma 4 Noroeste 0 -- -- --
2019-10-10 04:00:00 19.5 0 Calma -- -- 0 -- -- --
2019-10-10 03:00:00 19.2 0 Calma 5 Noroeste 0 -- -- --
2019-10-10 02:00:00 19.5 0 Calma 4 Noroeste 0 -- -- --
2019-10-10 01:00:00 19.9 0 Calma 7 Sur 0 -- -- --
2019-10-10 00:00:00 20.3 0 Calma 6 Sur 0 -- -- --
2019-10-09 23:00:00 21.1 3 Sur 7 Sur 0 -- -- --
2019-10-09 22:00:00 21.8 2 Noroeste 8 Noroeste 0 -- -- --
2019-10-09 21:00:00 22.6 0 Calma 14 Sudeste 0 -- -- --
2019-10-09 20:00:00 24.3 8 Sudeste 15 Sudeste 0 -- -- --
2019-10-09 19:00:00 25.5 5 Este 13 Nordeste 0 -- -- --
2019-10-09 18:00:00 25.6 7 Este 16 Nordeste 0 -- -- --
2019-10-09 17:00:00 26.1 6 Nordeste 16 Norte 0 -- -- --
2019-10-09 16:00:00 25.9 8 Nordeste 15 Nordeste 0 -- -- --
2019-10-09 15:00:00 25.1 8 Nordeste 13 Este 0 -- -- --
2019-10-09 14:00:00 25.1 6 Nordeste 17 Norte 0 -- -- --
2019-10-09 13:00:00 24.9 8 Norte 13 Nordeste 0 -- -- --
2019-10-09 12:00:00 24 6 Norte 10 Nordeste 0 -- -- --
2019-10-09 11:00:00 24 5 Este 8 Este 0 -- -- --
2019-10-09 10:00:00 22.2 3 Sur 6 Sur 0 -- -- --
2019-10-09 09:00:00 18.4 0 Calma 6 Noroeste 0 -- -- --
2019-10-09 08:00:00 17.1 0 Calma 4 Sur 0 -- -- --
2019-10-09 07:00:00 17.7 0 Calma 5 Sudeste 0 -- -- --
2019-10-09 06:00:00 18.5 4 Sur 6 Sur 0 -- -- --
2019-10-09 05:00:00 18.8 0 Calma 7 Sur 0 -- -- --
2019-10-09 04:00:00 18.8 3 Sur 5 Sudoeste 0 -- -- --
2019-10-09 03:00:00 19 0 Calma -- -- 0 -- -- --
2019-10-09 02:00:00 19.4 0 Calma -- -- 0 -- -- --
2019-10-09 01:00:00 20 0 Calma 7 Sur 0 -- -- --
2019-10-09 00:00:00 21.1 2 Sur 7 Sur 0 -- -- --
2019-10-08 23:00:00 21.3 0 Calma 8 Sur 0 -- -- --
2019-10-08 22:00:00 22.2 4 Sur 9 Sur 0 -- -- --
2019-10-08 21:00:00 23 0 Calma 12 Sur 0 -- -- --
2019-10-08 20:00:00 24.7 6 Sudeste 17 Sur 0 -- -- --
2019-10-08 19:00:00 26.2 9 Sur 20 Sur 0 -- -- --
2019-10-08 18:00:00 27.3 10 Sur 21 Sudeste 0 -- -- --
2019-10-08 17:00:00 27.7 8 Sudeste 16 Sur 0 -- -- --
2019-10-08 16:00:00 26.7 4 Nordeste 13 Nordeste 0 -- -- --
2019-10-08 15:00:00 25.6 8 Nordeste 15 Este 0 -- -- --
2019-10-08 14:00:00 24.5 8 Este 15 Este 0 -- -- --
2019-10-08 13:00:00 24.5 6 Nordeste 10 Nordeste 0 -- -- --
2019-10-08 12:00:00 24.2 6 Nordeste 9 Nordeste 0 -- -- --
2019-10-08 11:00:00 23.7 0 Calma 8 Noroeste 0 -- -- --
2019-10-08 10:00:00 21.2 0 Calma 5 Noroeste 0 -- -- --
2019-10-08 09:00:00 17.2 0 Calma 4 Oeste 0 -- -- --
2019-10-08 08:00:00 15.7 0 Calma 6 Noroeste 0 -- -- --
2019-10-08 07:00:00 15.9 0 Calma 4 Noroeste 0 -- -- --
2019-10-08 06:00:00 16 0 Calma 3 Oeste 0 -- -- --
2019-10-08 05:00:00 16.3 0 Calma 3 Noroeste 0 -- -- --
2019-10-08 04:00:00 16.7 0 Calma 0 Calma 0 -- -- --
2019-10-08 03:00:00 17.2 0 Calma 6 Noroeste 0 -- -- --
2019-10-08 02:00:00 17.6 0 Calma 6 Noroeste 0 -- -- --
2019-10-08 01:00:00 17.4 0 Calma 4 Noroeste 0 -- -- --
2019-10-08 00:00:00 18.1 0 Calma 2 Sur 0 -- -- --
2019-10-07 23:00:00 18.8 0 Calma -- -- 0 -- -- --
2019-10-07 22:00:00 19.7 0 Calma 5 Oeste 0 -- -- --
2019-10-07 21:00:00 21.3 0 Calma 12 Este 0 -- -- --
2019-10-07 20:00:00 23.1 4 Sudeste 14 Sudeste 0 -- -- --
2019-10-07 19:00:00 23.6 6 Este 15 Este 0 -- -- --
2019-10-07 18:00:00 23.8 9 Este 18 Este 0 -- -- --
2019-10-07 17:00:00 23.4 8 Este 17 Este 0 -- -- --
2019-10-07 16:00:00 24.3 6 Este 15 Este 0 -- -- --
2019-10-07 15:00:00 24.3 8 Este 29 Este 0 -- -- --
2019-10-07 14:00:00 24.7 11 Este 24 Nordeste 0 -- -- --
2019-10-07 13:00:00 25.7 9 Este 17 Nordeste 0 -- -- --
2019-10-07 12:00:00 26.2 8 Nordeste 15 Oeste 0 -- -- --
2019-10-07 11:00:00 25.4 5 Oeste 13 Noroeste 0 -- -- --
2019-10-07 10:00:00 23 3 Noroeste 8 Oeste 0 -- -- --
2019-10-07 09:00:00 20.1 2 Sur 12 Noroeste 0 -- -- --
2019-10-07 08:00:00 19.1 6 Oeste 11 Oeste 0 -- -- --
2019-10-07 07:00:00 19 5 Oeste 10 Oeste 0 -- -- --
2019-10-07 06:00:00 19.5 3 Oeste 8 Noroeste 0 -- -- --
2019-10-07 05:00:00 19.8 4 Noroeste 10 Oeste 0 -- -- --
2019-10-07 04:00:00 20.2 4 Oeste 9 Oeste 0 -- -- --
2019-10-07 03:00:00 20.6 4 Oeste 10 Oeste 0 -- -- --
2019-10-07 02:00:00 20.5 6 Noroeste 12 Noroeste 0 -- -- --
2019-10-07 01:00:00 20.3 4 Oeste 12 Noroeste 0 -- -- --
2019-10-07 00:00:00 20.6 5 Oeste 11 Oeste 0 -- -- --
2019-10-06 23:00:00 20.7 2 Oeste 9 Oeste 0 -- -- --
2019-10-06 22:00:00 21.1 2 Oeste 9 Oeste 0 -- -- --
2019-10-06 21:00:00 21.6 0 Calma 6 Oeste 0 -- -- --
2019-10-06 20:00:00 23.9 0 Calma 19 Este 0 -- -- --
2019-10-06 19:00:00 23.8 8 Este 20 Este 0 -- -- --
2019-10-06 18:00:00 24 7 Este 18 Este 0 -- -- --
2019-10-06 17:00:00 24.1 9 Este 17 Este 0 -- -- --
2019-10-06 16:00:00 24.6 10 Este 15 Este 0 -- -- --
2019-10-06 15:00:00 25 9 Nordeste 14 Nordeste 0 -- -- --
2019-10-06 14:00:00 25.1 10 Nordeste 14 Nordeste 0 -- -- --
2019-10-06 13:00:00 24.9 7 Nordeste 12 Nordeste 0 -- -- --
2019-10-06 12:00:00 24.5 7 Norte 13 Norte 0 -- -- --
2019-10-06 11:00:00 23.2 7 Oeste 13 Oeste 0 -- -- --
2019-10-06 10:00:00 21.2 8 Noroeste 12 Oeste 0 -- -- --
2019-10-06 09:00:00 19.2 2 Oeste 9 Oeste 0 -- -- --
2019-10-06 08:00:00 18.2 5 Oeste 9 Oeste 0 -- -- --
2019-10-06 07:00:00 18.5 4 Oeste 8 Noroeste 0 -- -- --
2019-10-06 06:00:00 19.3 3 Oeste 6 Oeste 0 -- -- --
2019-10-06 05:00:00 18.9 0 Calma 8 Noroeste 0 -- -- --
2019-10-06 04:00:00 18.7 0 Calma 6 Oeste 0 -- -- --
2019-10-06 03:00:00 18.5 3 Oeste 7 Noroeste 0 -- -- --
2019-10-06 02:00:00 19.2 2 Oeste 7 Oeste 0 -- -- --
2019-10-06 01:00:00 19.6 2 Noroeste 8 Oeste 0 -- -- --
2019-10-06 00:00:00 19.8 4 Noroeste 7 Oeste 0 -- -- --
2019-10-05 23:00:00 20.2 4 Oeste 7 Noroeste 0 -- -- --
2019-10-05 22:00:00 20.8 3 Oeste 7 Oeste 0 -- -- --
2019-10-05 21:00:00 22.3 0 Calma 6 Este 0 -- -- --
2019-10-05 20:00:00 23.6 0 Calma 17 Este 0 -- -- --
2019-10-05 19:00:00 24 9 Este 19 Este 0 -- -- --
2019-10-05 18:00:00 24.4 11 Este 19 Este 0 -- -- --
2019-10-05 17:00:00 24.8 9 Este 17 Este 0 -- -- --
2019-10-05 16:00:00 25.4 7 Este 14 Este 0 -- -- --
2019-10-05 15:00:00 25.4 8 Nordeste 17 Nordeste 0 -- -- --
2019-10-05 14:00:00 25.9 8 Nordeste 14 Nordeste 0 -- -- --
2019-10-05 13:00:00 25.4 7 Nordeste 14 Nordeste 0 -- -- --
2019-10-05 12:00:00 25.6 5 Norte 10 Nordeste 0 -- -- --
2019-10-05 11:00:00 25.1 3 Noroeste 10 Oeste 0 -- -- --
2019-10-05 10:00:00 22.1 4 Oeste 10 Oeste 0 -- -- --
2019-10-05 09:00:00 17.6 6 Oeste 10 Oeste 0 -- -- --
2019-10-05 08:00:00 16 5 Oeste 10 Oeste 0 -- -- --
2019-10-05 07:00:00 15.8 2 Oeste 8 Oeste 0 -- -- --
2019-10-05 06:00:00 16.4 0 Calma 0 Calma 0 -- -- --
2019-10-05 05:00:00 17.3 0 Calma -- -- 0 -- -- --
2019-10-05 04:00:00 18.4 0 Calma 4 Oeste 0 -- -- --
2019-10-05 03:00:00 20.2 0 Calma 6 Oeste 0 -- -- --
2019-10-05 02:00:00 20.5 3 Oeste 19 Norte 0 -- -- --
2019-10-05 01:00:00 22.1 9 Norte 18 Norte 0 -- -- --
2019-10-05 00:00:00 20.5 0 Calma 15 Norte 0 -- -- --
2019-10-04 23:00:00 20.7 3 Noroeste 13 Oeste 0 -- -- --
2019-10-04 22:00:00 21.1 0 Calma 4 Sur 0 -- -- --
2019-10-04 21:00:00 22.8 0 Calma 2 Sur 0 -- -- --
2019-10-04 20:00:00 24.6 0 Calma 15 Sudeste 0 -- -- --
2019-10-04 19:00:00 26.5 8 Sudeste 18 Sudeste 0 -- -- --
2019-10-04 18:00:00 27.1 9 Sudeste 23 Este 0 -- -- --
2019-10-04 17:00:00 27.4 11 Sudeste 23 Sudeste 0 -- -- --
2019-10-04 16:00:00 25.9 14 Este 26 Este 0 -- -- --
2019-10-04 15:00:00 25.3 13 Este 22 Este 0 -- -- --
2019-10-04 14:00:00 25.3 10 Sudeste 19 Sudeste 0 -- -- --
2019-10-04 13:00:00 24.9 9 Este 15 Este 0 -- -- --
2019-10-04 12:00:00 24.8 6 Este 11 Este 0 -- -- --
2019-10-04 11:00:00 25.2 0 Calma -- -- 0 -- -- --
2019-10-04 10:00:00 21.3 0 Calma -- -- 0 -- -- --
2019-10-04 09:00:00 16.2 0 Calma 5 Sur 0 -- -- --
2019-10-04 08:00:00 14 0 Calma -- -- 0 -- -- --
2019-10-04 07:00:00 15.1 0 Calma 8 Noroeste 0 -- -- --
2019-10-04 06:00:00 15 2 Noroeste 8 Noroeste 0 -- -- --
2019-10-04 05:00:00 15.1 5 Oeste 8 Oeste 0 -- -- --
2019-10-04 04:00:00 14.7 4 Oeste 9 Oeste 0 -- -- --
2019-10-04 03:00:00 15.1 4 Oeste 8 Oeste 0 -- -- --
2019-10-04 02:00:00 16 0 Calma 8 Oeste 0 -- -- --
2019-10-04 01:00:00 17.1 4 Oeste 10 Noroeste 0 -- -- --
2019-10-04 00:00:00 17.1 0 Calma 5 Noroeste 0 -- -- --
2019-10-03 23:00:00 18 0 Calma -- -- 0 -- -- --
2019-10-03 22:00:00 19.2 0 Calma 4 Oeste 0 -- -- --
2019-10-03 21:00:00 20.8 0 Calma 8 Sur 0 -- -- --
2019-10-03 20:00:00 23.3 3 Sudeste 19 Sudeste 0 -- -- --
2019-10-03 19:00:00 24.5 9 Sudeste 24 Este 0 -- -- --
2019-10-03 18:00:00 23.8 11 Sudeste 21 Sudeste 0 -- -- --
2019-10-03 17:00:00 24 9 Sudeste 18 Este 0 -- -- --
2019-10-03 16:00:00 23.9 9 Este 17 Este 0 -- -- --
2019-10-03 15:00:00 24.2 10 Este 16 Este 0 -- -- --
2019-10-03 14:00:00 24.6 8 Este 19 Nordeste 0 -- -- --
2019-10-03 13:00:00 24.8 9 Nordeste 25 Noroeste 0 -- -- --
2019-10-03 12:00:00 24.3 10 Oeste 21 Oeste 0 -- -- --
2019-10-03 11:00:00 22.9 8 Oeste 17 Oeste 0 -- -- --
2019-10-03 10:00:00 20.7 5 Noroeste 10 Noroeste 0 -- -- --
2019-10-03 09:00:00 16.5 4 Oeste 9 Oeste 0 -- -- --
2019-10-03 08:00:00 15.1 4 Oeste 8 Noroeste 0 -- -- --
2019-10-03 07:00:00 15 0 Calma 8 Noroeste 0 -- -- --
2019-10-03 06:00:00 15.2 5 Oeste 8 Noroeste 0 -- -- --
2019-10-03 05:00:00 15.3 0 Calma 6 Noroeste 0 -- -- --
2019-10-03 04:00:00 16 3 Oeste 7 Noroeste 0 -- -- --
2019-10-03 03:00:00 16.6 0 Calma 8 Oeste 0 -- -- --
2019-10-03 02:00:00 16.9 0 Calma 6 Noroeste 0 -- -- --
2019-10-03 01:00:00 17.6 0 Calma 7 Oeste 0 -- -- --
2019-10-03 00:00:00 17.6 0 Calma -- -- 0 -- -- --
2019-10-02 23:00:00 18.9 0 Calma -- -- 0 -- -- --
2019-10-02 22:00:00 20.1 0 Calma 3 Sur 0 -- -- --
2019-10-02 21:00:00 23.2 0 Calma 13 Sudeste 0 -- -- --
2019-10-02 20:00:00 24.4 5 Sudeste 17 Sudeste 0 -- -- --
2019-10-02 19:00:00 25.6 3 Sudeste 17 Sur 0 -- -- --
2019-10-02 18:00:00 25.9 7 Sudeste 15 Este 0 -- -- --
2019-10-02 17:00:00 25.5 9 Este 16 Este 0 -- -- --
2019-10-02 16:00:00 26.2 10 Nordeste 24 Nordeste 0 -- -- --
2019-10-02 15:00:00 25.6 18 Nordeste 27 Nordeste 0 -- -- --
2019-10-02 14:00:00 25.7 10 Norte 27 Norte 0 -- -- --
2019-10-02 13:00:00 25.6 12 Norte 21 Norte 0 -- -- --
2019-10-02 12:00:00 24.7 13 Norte 24 Norte 0 -- -- --
2019-10-02 11:00:00 24.9 5 Norte 19 Oeste 0 -- -- --
2019-10-02 10:00:00 24 8 Oeste 49 Oeste 0 -- -- --
2019-10-02 09:00:00 22.5 8 Oeste 23 Oeste 0 -- -- --
2019-10-02 08:00:00 21.2 6 Oeste 19 Oeste 0 -- -- --
2019-10-02 07:00:00 21.3 6 Oeste 20 Oeste 0 -- -- --
2019-10-02 06:00:00 21.4 9 Oeste 18 Oeste 0 -- -- --
2019-10-02 05:00:00 21.6 5 Oeste 19 Oeste 0 -- -- --
2019-10-02 04:00:00 22.7 9 Oeste 18 Oeste 0 -- -- --
2019-10-02 03:00:00 23.7 6 Oeste 21 Oeste 0 -- -- --
2019-10-02 02:00:00 25.2 11 Oeste 24 Oeste 0 -- -- --
2019-10-02 01:00:00 25.5 12 Noroeste 32 Oeste 0 -- -- --
2019-10-02 00:00:00 23.5 6 Oeste 15 Noroeste 0 -- -- --
2019-10-01 23:00:00 25.7 6 Noroeste 17 Noroeste 0 -- -- --
2019-10-01 22:00:00 25.8 7 Noroeste 15 Oeste 0 -- -- --
2019-10-01 21:00:00 26.5 7 Oeste 15 Oeste 0 -- -- --
2019-10-01 20:00:00 26.9 7 Oeste 12 Oeste 0 -- -- --
2019-10-01 19:00:00 29.8 4 Sur 10 Sudeste 0 -- -- --
2019-10-01 18:00:00 30 4 Sudeste 14 Sudeste 0 -- -- --
2019-10-01 17:00:00 29.6 7 Sudeste 14 Sudeste 0 -- -- --
2019-10-01 16:00:00 27.8 5 Este 12 Este 0 -- -- --
2019-10-01 15:00:00 26.5 8 Este 15 Este 0 -- -- --
2019-10-01 14:00:00 26.8 8 Este 14 Este 0 -- -- --
2019-10-01 13:00:00 25.5 8 Este 13 Este 0 -- -- --
2019-10-01 12:00:00 25.6 5 Este 9 Este 0 -- -- --
2019-10-01 11:00:00 24.6 2 Este 9 Este 0 -- -- --
2019-10-01 10:00:00 22.5 0 Calma 6 Noroeste 0 -- -- --
2019-10-01 09:00:00 19.4 0 Calma -- -- 0 -- -- --
2019-10-01 08:00:00 18.6 0 Calma 5 Sur 0 -- -- --
2019-10-01 07:00:00 19 0 Calma -- -- 0 -- -- --
2019-10-01 06:00:00 20.1 0 Calma 3 Sur 0 -- -- --
2019-10-01 05:00:00 20.3 0 Calma -- -- 0 -- -- --
2019-10-01 04:00:00 20.9 0 Calma -- -- 0 -- -- --
2019-10-01 03:00:00 21 0 Calma 0 Calma 0 -- -- --
2019-10-01 02:00:00 21.6 0 Calma 3 Noroeste 0 -- -- --
2019-10-01 01:00:00 22.3 0 Calma 7 Noroeste 0 -- -- --
2019-10-01 00:00:00 22.8 4 Noroeste 6 Noroeste 0 -- -- --
2019-09-30 23:00:00 23.7 0 Calma 0 Calma 0 -- -- --
2019-09-30 22:00:00 23.9 0 Calma -- -- 0 -- -- --
2019-09-30 21:00:00 23.9 0 Calma -- -- 0 -- -- --
2019-09-30 20:00:00 24.4 0 Calma -- -- 0 -- -- --
2019-09-30 19:00:00 25.1 0 Calma 8 Nordeste 0 -- -- --
2019-09-30 18:00:00 25.5 4 Nordeste 12 Nordeste 0 -- -- --
2019-09-30 17:00:00 26.2 5 Nordeste 13 Nordeste 0 -- -- --
2019-09-30 16:00:00 26.6 6 Nordeste 13 Norte 0 -- -- --
2019-09-30 15:00:00 26.3 7 Norte 15 Norte 0 -- -- --
2019-09-30 14:00:00 25.9 8 Norte 16 Norte 0 -- -- --
2019-09-30 13:00:00 25.9 8 Norte 16 Norte 0 -- -- --
2019-09-30 12:00:00 25.7 6 Norte 13 Norte 0 -- -- --
2019-09-30 11:00:00 24.6 4 Norte 8 Norte 0 -- -- --
2019-09-30 10:00:00 22.1 2 Noroeste 7 Noroeste 0 -- -- --
2019-09-30 09:00:00 18.5 0 Calma -- -- 0 -- -- --
2019-09-30 08:00:00 17.5 0 Calma -- -- 0 -- -- --
2019-09-30 07:00:00 19.2 0 Calma -- -- 0 -- -- --
2019-09-30 06:00:00 19.4 0 Calma 4 Sur 0 -- -- --
2019-09-30 05:00:00 18.9 2 Sur 5 Sudoeste 0 -- -- --
2019-09-30 04:00:00 19.8 3 Sur 6 Sur 0 -- -- --
2019-09-30 03:00:00 20.2 0 Calma 5 Sur 0 -- -- --
2019-09-30 02:00:00 21.2 0 Calma 4 Noroeste 0 -- -- --
2019-09-30 01:00:00 22.3 0 Calma 14 Norte 0 -- -- --
2019-09-30 00:00:00 24.3 3 Norte 17 Norte 0 -- -- --
2019-09-29 23:00:00 22.5 0 Calma -- -- 0 -- -- --
2019-09-29 22:00:00 22.8 0 Calma 5 Noroeste 0 -- -- --
2019-09-29 21:00:00 25.1 0 Calma 4 Oeste 0 -- -- --
2019-09-29 20:00:00 27.2 0 Calma 7 Sudeste 0 -- -- --
2019-09-29 19:00:00 29.7 2 Sudeste 17 Sudeste 0 -- -- --
2019-09-29 18:00:00 28.9 9 Sudeste 20 Sudeste 0 -- -- --
2019-09-29 17:00:00 28.9 9 Este 16 Este 0 -- -- --
2019-09-29 16:00:00 28.3 6 Este 12 Este 0 -- -- --
2019-09-29 15:00:00 27.2 6 Este 13 Este 0 -- -- --
2019-09-29 14:00:00 26.2 8 Este 20 Este 0 -- -- --
2019-09-29 13:00:00 25.2 8 Este 15 Este 0 -- -- --
2019-09-29 12:00:00 24.7 7 Este 12 Este 0 -- -- --
2019-09-29 11:00:00 24.7 2 Este 6 Nordeste 0 -- -- --
2019-09-29 10:00:00 23.4 0 Calma 3 Sur 0 -- -- --
2019-09-29 09:00:00 19.8 0 Calma 3 Sur 0 -- -- --
2019-09-29 08:00:00 19 0 Calma 5 Sur 0 -- -- --
2019-09-29 07:00:00 19.8 0 Calma 4 Oeste 0 -- -- --
2019-09-29 06:00:00 20.6 0 Calma 9 Oeste 0 -- -- --
2019-09-29 05:00:00 21.5 4 Oeste 9 Oeste 0 -- -- --
2019-09-29 04:00:00 21.6 0 Calma 4 Sudoeste 0 -- -- --
2019-09-29 03:00:00 20.9 0 Calma 6 Oeste 0 -- -- --
2019-09-29 02:00:00 20.8 2 Oeste 6 Oeste 0 -- -- --
2019-09-29 01:00:00 21 0 Calma 5 Oeste 0 -- -- --
2019-09-29 00:00:00 21.3 0 Calma -- -- 0 -- -- --
2019-09-28 23:00:00 21.8 0 Calma 4 Oeste 0 -- -- --
2019-09-28 22:00:00 22.8 0 Calma -- -- 0 -- -- --
2019-09-28 21:00:00 23.6 0 Calma 2 Nordeste 0 -- -- --
2019-09-28 20:00:00 24.7 0 Calma 6 Nordeste 0 -- -- --
2019-09-28 19:00:00 25.1 3 Nordeste 9 Norte 0 -- -- --
2019-09-28 18:00:00 25.3 6 Norte 13 Norte 0 -- -- --
2019-09-28 17:00:00 25.9 8 Norte 17 Nordeste 0 -- -- --
2019-09-28 16:00:00 26.4 11 Norte 17 Norte 0 -- -- --
2019-09-28 15:00:00 26.5 10 Norte 17 Norte 0 -- -- --
2019-09-28 14:00:00 26.2 10 Norte 19 Norte 0 -- -- --
2019-09-28 13:00:00 26.3 9 Norte 19 Norte 0 -- -- --
2019-09-28 12:00:00 25.6 9 Norte 19 Norte 0 -- -- --
2019-09-28 11:00:00 25.7 5 Noroeste 15 Noroeste 0 -- -- --
2019-09-28 10:00:00 22.9 6 Noroeste 12 Oeste 0 -- -- --
2019-09-28 09:00:00 19.6 4 Oeste 9 Noroeste 0 -- -- --
2019-09-28 08:00:00 18.6 5 Oeste 8 Noroeste 0 -- -- --
2019-09-28 07:00:00 19.3 0 Calma -- -- 0 -- -- --
2019-09-28 06:00:00 19.8 0 Calma 7 Oeste 0 -- -- --
2019-09-28 05:00:00 19.6 0 Calma 0 Calma 0 -- -- --
2019-09-28 04:00:00 20.3 0 Calma -- -- 0 -- -- --
2019-09-28 03:00:00 20.8 0 Calma 0 Calma 0 -- -- --
2019-09-28 02:00:00 21.8 0 Calma 4 Oeste 0 -- -- --
2019-09-28 01:00:00 22.4 0 Calma 12 Oeste 0 -- -- --
2019-09-28 00:00:00 23 5 Oeste 16 Noroeste 0 -- -- --
2019-09-27 23:00:00 23.9 5 Noroeste 23 Norte 0 -- -- --
2019-09-27 22:00:00 24.8 7 Norte 20 Norte 0 -- -- --
2019-09-27 21:00:00 24.8 0 Calma 9 Sur 0 -- -- --
2019-09-27 20:00:00 26.8 4 Sur 17 Sudeste 0 -- -- --
2019-09-27 19:00:00 27.8 9 Sudeste 26 Sur 0 -- -- --
2019-09-27 18:00:00 28.9 12 Sudeste 23 Sudeste 0 -- -- --
2019-09-27 17:00:00 29.3 12 Sudeste 24 Sudeste 0 -- -- --
2019-09-27 16:00:00 28.4 9 Este 16 Este 0 -- -- --
2019-09-27 15:00:00 28.5 6 Este 17 Este 0 -- -- --
2019-09-27 14:00:00 26.7 9 Este 17 Este 0 -- -- --
2019-09-27 13:00:00 25.8 8 Este 15 Este 0 -- -- --
2019-09-27 12:00:00 25.2 9 Este 13 Este 0 -- -- --
2019-09-27 11:00:00 25.1 5 Este 8 Este 0 -- -- --
2019-09-27 10:00:00 23.3 0 Calma 5 Oeste 0 -- -- --
2019-09-27 09:00:00 20 0 Calma 4 Sur 0 -- -- --
2019-09-27 08:00:00 18.5 0 Calma 5 Oeste 0 -- -- --
2019-09-27 07:00:00 18.2 0 Calma 5 Oeste 0 -- -- --
2019-09-27 06:00:00 18.9 0 Calma 4 Oeste 0 -- -- --
2019-09-27 05:00:00 19.7 0 Calma 6 Sur 0 -- -- --
2019-09-27 04:00:00 20.3 2 Sur 8 Sur 0 -- -- --
2019-09-27 03:00:00 20.9 3 Sur 5 Sur 0 -- -- --
2019-09-27 02:00:00 21.4 0 Calma 6 Sur 0 -- -- --
2019-09-27 01:00:00 22.4 0 Calma 9 Nordeste 0 -- -- --
2019-09-27 00:00:00 22.2 2 Noroeste 7 Noroeste 0 -- -- --
2019-09-26 23:00:00 22.6 0 Calma 7 Sur 0 -- -- --
2019-09-26 22:00:00 23.6 0 Calma 8 Sur 0 -- -- --
2019-09-26 21:00:00 25 3 Sur 10 Sur 0 -- -- --
2019-09-26 20:00:00 26.1 5 Sur 18 Sur 0 -- -- --
2019-09-26 19:00:00 27.5 7 Sudeste 22 Sudeste 0 -- -- --
2019-09-26 18:00:00 27.6 9 Sudeste 22 Sudeste 0 -- -- --
2019-09-26 17:00:00 27.5 5 Sur 26 Este 0 -- -- --
2019-09-26 16:00:00 26.4 6 Este 14 Este 0 -- -- --
2019-09-26 15:00:00 25.6 8 Este 16 Este 0 -- -- --
2019-09-26 14:00:00 25.7 10 Nordeste 17 Este 0 -- -- --
2019-09-26 13:00:00 25.5 10 Nordeste 15 Nordeste 0 -- -- --
2019-09-26 12:00:00 25.5 6 Nordeste 12 Nordeste 0 -- -- --
2019-09-26 11:00:00 24.9 4 Nordeste 8 Nordeste 0 -- -- --
2019-09-26 10:00:00 23.2 0 Calma -- -- 0 -- -- --
2019-09-26 09:00:00 20.9 0 Calma -- -- 0 -- -- --
2019-09-26 08:00:00 20 0 Calma 5 Oeste 0 -- -- --
2019-09-26 07:00:00 20.1 3 Oeste 8 Noroeste 0 -- -- --
2019-09-26 06:00:00 20 5 Noroeste 8 Noroeste 0 -- -- --
2019-09-26 05:00:00 20.3 0 Calma 6 Oeste 0 -- -- --
2019-09-26 04:00:00 20.5 4 Oeste 8 Oeste 0 -- -- --
2019-09-26 03:00:00 20.8 0 Calma 5 Oeste 0 -- -- --
2019-09-26 02:00:00 21.3 3 Oeste 12 Oeste 0 -- -- --
2019-09-26 01:00:00 21.4 0 Calma 3 Oeste 0 -- -- --
2019-09-26 00:00:00 21.6 3 Oeste 6 Oeste 0 -- -- --
2019-09-25 23:00:00 22.1 0 Calma 5 Noroeste 0 -- -- --
2019-09-25 22:00:00 23.8 0 Calma 14 Este 0 -- -- --
2019-09-25 21:00:00 24.1 6 Este 15 Sudeste 0 -- -- --
2019-09-25 20:00:00 24.3 8 Sudeste 17 Este 0 -- -- --
2019-09-25 19:00:00 24.9 9 Este 20 Este 0 -- -- --
2019-09-25 18:00:00 25.2 10 Este 19 Este 0 -- -- --
2019-09-25 17:00:00 25.7 10 Este 19 Este 0 -- -- --
2019-09-25 16:00:00 26.3 8 Este 25 Nordeste 0 -- -- --
2019-09-25 15:00:00 26.6 16 Nordeste 28 Nordeste 0 -- -- --
2019-09-25 14:00:00 27 15 Nordeste 26 Nordeste 0 -- -- --
2019-09-25 13:00:00 27.3 12 Norte 23 Norte 0 -- -- --
2019-09-25 12:00:00 29.2 10 Noroeste 26 Oeste 0 -- -- --
2019-09-25 11:00:00 27.6 14 Oeste 33 Oeste 0 -- -- --
2019-09-25 10:00:00 25.7 16 Oeste 31 Oeste 0 -- -- --
2019-09-25 09:00:00 23.9 13 Oeste 27 Oeste 0 -- -- --
2019-09-25 08:00:00 22.4 10 Oeste 40 Noroeste 0 -- -- --
2019-09-25 07:00:00 23 12 Oeste 29 Oeste 0 -- -- --
2019-09-25 06:00:00 23.6 14 Oeste 28 Oeste 0 -- -- --
2019-09-25 05:00:00 23.9 13 Oeste 28 Oeste 0 -- -- --
2019-09-25 04:00:00 25 10 Oeste 27 Oeste 0 -- -- --
2019-09-25 03:00:00 24.2 6 Noroeste 16 Norte 0 -- -- --
2019-09-25 02:00:00 23.3 8 Oeste 17 Oeste 0 -- -- --
2019-09-25 01:00:00 24.7 9 Noroeste 16 Noroeste 0 -- -- --
2019-09-25 00:00:00 24.5 7 Oeste 15 Oeste 0 -- -- --
2019-09-24 23:00:00 25.4 5 Oeste 15 Oeste 0 -- -- --
2019-09-24 22:00:00 24 5 Oeste 13 Oeste 0 -- -- --
2019-09-24 21:00:00 25 2 Sur 7 Oeste 0 -- -- --
2019-09-24 20:00:00 28.1 0 Calma 6 Sudeste 0 -- -- --
2019-09-24 19:00:00 30.4 4 Sudeste 13 Este 0 -- -- --
2019-09-24 18:00:00 29.7 5 Este 19 Este 0 -- -- --
2019-09-24 17:00:00 29.5 9 Este 19 Este 0 -- -- --
2019-09-24 16:00:00 29.4 10 Sudeste 19 Este 0 -- -- --
2019-09-24 15:00:00 28.5 10 Sudeste 20 Sudeste 0 -- -- --
2019-09-24 14:00:00 30.3 8 Este 17 Oeste 0 -- -- --
2019-09-24 13:00:00 30.4 9 Oeste 19 Oeste 0 -- -- --
2019-09-24 12:00:00 28.8 11 Oeste 27 Oeste 0 -- -- --
2019-09-24 11:00:00 27.1 10 Oeste 20 Oeste 0 -- -- --
2019-09-24 10:00:00 24 6 Oeste 11 Oeste 0 -- -- --
2019-09-24 09:00:00 19.9 0 Calma 5 Noroeste 0 -- -- --
2019-09-24 08:00:00 17.5 0 Calma 8 Sur 0 -- -- --
2019-09-24 07:00:00 18.6 0 Calma 11 Oeste 0 -- -- --
2019-09-24 06:00:00 18.4 2 Oeste 6 Sur 0 -- -- --
2019-09-24 05:00:00 18.2 0 Calma 6 Oeste 0 -- -- --
2019-09-24 04:00:00 18.4 2 Oeste 7 Oeste 0 -- -- --
2019-09-24 03:00:00 19.1 0 Calma 7 Sur 0 -- -- --
2019-09-24 02:00:00 19.3 0 Calma 6 Sur 0 -- -- --
2019-09-24 01:00:00 20 0 Calma 3 Sur 0 -- -- --
2019-09-24 00:00:00 20.4 0 Calma 3 Nordeste 0 -- -- --
2019-09-23 23:00:00 21.1 2 Sur 6 Sur 0 -- -- --
2019-09-23 22:00:00 22 0 Calma 6 Oeste 0 -- -- --
2019-09-23 21:00:00 23.4 0 Calma 17 Sudeste 0 -- -- --
2019-09-23 20:00:00 24.1 8 Sudeste 14 Sudeste 0 -- -- --
2019-09-23 19:00:00 24.3 7 Sudeste 17 Este 0 -- -- --
2019-09-23 18:00:00 24.7 8 Sudeste 15 Este 0 -- -- --
2019-09-23 17:00:00 25.3 6 Este 15 Este 0 -- -- --
2019-09-23 16:00:00 25.4 8 Nordeste 13 Nordeste 0 -- -- --
2019-09-23 15:00:00 25.8 7 Nordeste 11 Nordeste 0 -- -- --
2019-09-23 14:00:00 25.6 6 Nordeste 14 Nordeste 0 -- -- --
2019-09-23 13:00:00 25.7 8 Norte 15 Nordeste 0 -- -- --
2019-09-23 12:00:00 25.9 7 Norte 13 Norte 0 -- -- --
2019-09-23 11:00:00 24.7 6 Noroeste 16 Oeste 0 -- -- --
2019-09-23 10:00:00 23.3 6 Oeste 14 Noroeste 0 -- -- --
2019-09-23 09:00:00 21.5 6 Oeste 21 Oeste 0 -- -- --
2019-09-23 08:00:00 20.3 7 Oeste 19 Oeste 0 -- -- --
2019-09-23 07:00:00 20.2 5 Oeste 19 Noroeste 0 -- -- --
2019-09-23 06:00:00 20.4 10 Noroeste 28 Oeste 0 -- -- --
2019-09-23 05:00:00 20.8 11 Oeste 23 Oeste 0 -- -- --
2019-09-23 04:00:00 21.3 8 Oeste 25 Oeste 0 -- -- --
2019-09-23 03:00:00 21.9 9 Oeste 20 Oeste 0 -- -- --
2019-09-23 02:00:00 22.5 9 Oeste 22 Oeste 0 -- -- --
2019-09-23 01:00:00 23.4 11 Oeste 25 Oeste 0 -- -- --
2019-09-23 00:00:00 22.5 7 Oeste 17 Oeste 0 -- -- --
2019-09-22 23:00:00 23.4 7 Noroeste 11 Noroeste 0 -- -- --
2019-09-22 22:00:00 24.7 6 Noroeste 14 Noroeste 0 -- -- --
2019-09-22 21:00:00 25.6 0 Calma 9 Sudeste 0 -- -- --
2019-09-22 20:00:00 26.8 5 Sur 13 Sudeste 0 -- -- --
2019-09-22 19:00:00 27.5 9 Sudeste 22 Sudeste 0 -- -- --
2019-09-22 18:00:00 28.4 9 Sudeste 19 Este 0 -- -- --
2019-09-22 17:00:00 28.3 9 Sudeste 23 Este 0 -- -- --
2019-09-22 16:00:00 27.5 13 Este 26 Este 0 -- -- --
2019-09-22 15:00:00 27.2 13 Este 23 Este 0 -- -- --
2019-09-22 14:00:00 27.3 10 Sudeste 18 Este 0 -- -- --
2019-09-22 13:00:00 27.3 6 Este 15 Este 0 -- -- --
2019-09-22 12:00:00 28 6 Noroeste 19 Oeste 0 -- -- --
2019-09-22 11:00:00 27.2 5 Oeste 12 Noroeste 0 -- -- --
2019-09-22 10:00:00 25.4 0 Calma 5 Oeste 0 -- -- --
2019-09-22 09:00:00 22.6 0 Calma 4 Oeste 0 -- -- --
2019-09-22 08:00:00 21.5 0 Calma 5 Sur 0 -- -- --
2019-09-22 07:00:00 22.1 0 Calma 12 Sudoeste 0 -- -- --
2019-09-22 06:00:00 22.1 0 Calma 5 Sur 0 -- -- --
2019-09-22 05:00:00 22.5 0 Calma 6 Noroeste 0 -- -- --
2019-09-22 04:00:00 23.5 2 Sur 10 Norte 0 -- -- --
2019-09-22 03:00:00 23.9 0 Calma 10 Noroeste 0 -- -- --
2019-09-22 02:00:00 24.2 3 Noroeste 10 Norte 0 -- -- --
2019-09-22 01:00:00 23.9 0 Calma 7 Oeste 0 -- -- --
2019-09-22 00:00:00 23.6 0 Calma 7 Sudoeste 0 -- -- --
2019-09-21 23:00:00 24.3 3 Sudeste 9 Este 0 -- -- --
2019-09-21 22:00:00 24.3 4 Sur 8 Sur 0 -- -- --
2019-09-21 21:00:00 24.7 2 Sur 5 Sur 0 -- -- --
2019-09-21 20:00:00 25.1 0 Calma 8 Sur 0 -- -- --
2019-09-21 19:00:00 25.4 5 Sur 15 Sudeste 0 -- -- --
2019-09-21 18:00:00 25.6 4 Sur 11 Sudeste 0 -- -- --
2019-09-21 17:00:00 25.2 5 Este 11 Este 0 -- -- --
2019-09-21 16:00:00 25.7 6 Nordeste 12 Nordeste 0 -- -- --
2019-09-21 15:00:00 26.1 6 Nordeste 15 Nordeste 0 -- -- --
2019-09-21 14:00:00 25.4 7 Nordeste 12 Nordeste 0 -- -- --
2019-09-21 13:00:00 25.2 6 Norte 16 Noroeste 0 -- -- --
2019-09-21 12:00:00 24.1 5 Noroeste 14 Norte 0 -- -- --
2019-09-21 11:00:00 23.3 7 Norte 18 Nordeste 0 -- -- --
2019-09-21 10:00:00 21.7 9 Norte 22 Norte 1.6 -- -- --
2019-09-21 09:00:00 22.9 0 Calma 8 Oeste 0.2 -- -- --
2019-09-21 08:00:00 22.6 3 Noroeste 10 Oeste 0.5 -- -- --
2019-09-21 07:00:00 22.4 4 Oeste 8 Nordeste 0 -- -- --
2019-09-21 06:00:00 22.8 0 Calma 7 Este 0 -- -- --
2019-09-21 05:00:00 23.1 0 Calma 4 Este 0 -- -- --
2019-09-21 04:00:00 24 3 Este 10 Nordeste 0 -- -- --
2019-09-21 03:00:00 24 4 Este 14 Este 0 -- -- --
2019-09-21 02:00:00 24 8 Este 15 Este 0 -- -- --
2019-09-21 01:00:00 24 7 Este 22 Este 0 -- -- --
2019-09-21 00:00:00 24.1 12 Este 21 Este 0 -- -- --
2019-09-20 23:00:00 23.2 0 Calma 9 Nordeste 0 -- -- --
2019-09-20 22:00:00 23.9 2 Nordeste 9 Este 0 -- -- --
2019-09-20 21:00:00 24.2 5 Este 11 Este 0 -- -- --
2019-09-20 20:00:00 24.4 5 Este 18 Sudeste 0 -- -- --
2019-09-20 19:00:00 24.4 10 Este 25 Este 0 -- -- --
2019-09-20 18:00:00 24.7 13 Este 23 Este 0 -- -- --
2019-09-20 17:00:00 25.3 11 Este 19 Este 0 -- -- --
2019-09-20 16:00:00 25.6 7 Este 15 Este 0 -- -- --
2019-09-20 15:00:00 26.3 7 Este 16 Este 0 -- -- --
2019-09-20 14:00:00 26.5 8 Este 17 Este 0 -- -- --
2019-09-20 13:00:00 25.6 9 Este 18 Nordeste 0 -- -- --
2019-09-20 12:00:00 25.1 8 Este 20 Norte 0 -- -- --
2019-09-20 11:00:00 24.3 9 Noroeste 20 Norte 0 -- -- --
2019-09-20 10:00:00 23.4 6 Noroeste 13 Noroeste 0 -- -- --
2019-09-20 09:00:00 21.6 5 Noroeste 10 Noroeste 0 -- -- --
2019-09-20 08:00:00 21.4 0 Calma 6 Oeste 0 -- -- --
2019-09-20 07:00:00 21.8 0 Calma 6 Oeste 0 -- -- --
2019-09-20 06:00:00 21.4 0 Calma 8 Oeste 0 -- -- --
2019-09-20 05:00:00 21.1 5 Oeste 9 Oeste 0 -- -- --
2019-09-20 04:00:00 20.4 4 Oeste 7 Oeste 0 -- -- --
2019-09-20 03:00:00 20.4 4 Noroeste 8 Oeste 0 -- -- --
2019-09-20 02:00:00 20.8 2 Oeste 8 Noroeste 0 -- -- --
2019-09-20 01:00:00 21.4 0 Calma 5 Oeste 0 -- -- --
2019-09-20 00:00:00 22 0 Calma 5 Oeste 0 -- -- --
2019-09-19 23:00:00 22.7 0 Calma 0 Calma 0 -- -- --
2019-09-19 22:00:00 23.7 0 Calma 9 Este 0 -- -- --
2019-09-19 21:00:00 24 5 Nordeste 8 Nordeste 0 -- -- --
2019-09-19 20:00:00 24.2 3 Sudeste 10 Este 0 -- -- --
2019-09-19 19:00:00 24.9 7 Este 12 Este 0 -- -- --
2019-09-19 18:00:00 25.4 7 Nordeste 11 Nordeste 0 -- -- --
2019-09-19 17:00:00 25.6 6 Nordeste 13 Nordeste 0 -- -- --
2019-09-19 16:00:00 26.1 7 Nordeste 14 Nordeste 0 -- -- --
2019-09-19 15:00:00 26.2 8 Nordeste 14 Norte 0 -- -- --
2019-09-19 14:00:00 26.5 7 Nordeste 13 Norte 0 -- -- --
2019-09-19 13:00:00 25.5 7 Norte 17 Norte 0 -- -- --
2019-09-19 12:00:00 25.3 8 Norte 14 Norte 0 -- -- --
2019-09-19 11:00:00 24.8 8 Norte 12 Norte 0 -- -- --
2019-09-19 10:00:00 23 3 Oeste 6 Oeste 0 -- -- --
2019-09-19 09:00:00 19.9 4 Oeste 8 Oeste 0 -- -- --
2019-09-19 08:00:00 18.7 3 Oeste 9 Noroeste 0 -- -- --
2019-09-19 07:00:00 18.6 4 Oeste 8 Noroeste 0 -- -- --
2019-09-19 06:00:00 18.9 3 Oeste 8 Oeste 0 -- -- --
2019-09-19 05:00:00 19.2 4 Oeste 9 Oeste 0 -- -- --
2019-09-19 04:00:00 19.7 0 Calma 3 Oeste 0 -- -- --
2019-09-19 03:00:00 20.1 0 Calma 8 Oeste 0 -- -- --
2019-09-19 02:00:00 20.4 4 Oeste 9 Noroeste 0 -- -- --
2019-09-19 01:00:00 20.9 4 Noroeste 11 Oeste 0 -- -- --
2019-09-19 00:00:00 21.7 8 Noroeste 13 Noroeste 0 -- -- --
2019-09-18 23:00:00 21.7 6 Noroeste 9 Noroeste 0 -- -- --
2019-09-18 22:00:00 23.1 0 Calma 12 Sudeste 0 -- -- --
2019-09-18 21:00:00 24.9 3 Sudeste 17 Este 0 -- -- --
2019-09-18 20:00:00 25.8 9 Este 18 Este 0 -- -- --
2019-09-18 19:00:00 26.2 8 Sudeste 17 Este 0 -- -- --
2019-09-18 18:00:00 26.9 8 Sudeste 19 Este 0 -- -- --
2019-09-18 17:00:00 26.3 10 Este 18 Este 0 -- -- --
2019-09-18 16:00:00 26.5 9 Este 19 Este 0 -- -- --
2019-09-18 15:00:00 26.2 11 Este 18 Este 0 -- -- --
2019-09-18 14:00:00 26.3 12 Este -- -- -- -- -- --
2019-09-18 13:00:00 -- -- -- -- -- -- -- -- --
2019-09-18 12:00:00 25.9 8 Este 14 Sudeste 0 -- -- --
2019-09-18 11:00:00 25 5 Este 9 Este 0 -- -- --
2019-09-18 10:00:00 24.1 4 Este 8 Sur 0 -- -- --
2019-09-18 09:00:00 21.3 0 Calma 9 Sur 0 -- -- --
2019-09-18 08:00:00 19.8 2 Sur 6 Sur 0 -- -- --
2019-09-18 07:00:00 20 3 Noroeste 8 Noroeste 0 -- -- --
2019-09-18 06:00:00 20.7 5 Noroeste 12 Noroeste 0 -- -- --
2019-09-18 05:00:00 21.2 5 Norte 9 Noroeste 0 -- -- --
2019-09-18 04:00:00 20.9 7 Noroeste 14 Noroeste 0 -- -- --
2019-09-18 03:00:00 20.9 4 Oeste 6 Noroeste 0 -- -- --
2019-09-18 02:00:00 21.6 0 Calma 5 Oeste 0 -- -- --
2019-09-18 01:00:00 22.6 0 Calma 8 Sur 0 -- -- --
2019-09-18 00:00:00 23 2 Sudoeste 13 Nordeste 0 -- -- --
2019-09-17 23:00:00 23.8 9 Norte 17 Norte 0 -- -- --
2019-09-17 22:00:00 23.1 3 Noroeste 6 Noroeste 0 -- -- --
2019-09-17 21:00:00 23.7 3 Noroeste 8 Norte 0 -- -- --